createdAt,value
2024-01-20T00:00:13.714Z,102510.13
2024-01-20T00:02:40.494Z,102510.13
2024-01-20T00:05:07.708Z,102506.50
2024-01-20T00:07:34.366Z,102510.72
2024-01-20T00:10:01.031Z,102500.09
2024-01-20T00:12:27.745Z,102502.69
2024-01-20T00:14:54.327Z,102503.38
2024-01-20T00:17:25.112Z,102506.66
2024-01-20T00:19:55.064Z,102508.94
2024-01-20T00:22:27.430Z,102500.94
2024-01-20T00:24:54.172Z,102506.81
2024-01-20T00:27:20.934Z,102511.19
2024-01-20T00:29:47.507Z,102512.69
2024-01-20T00:32:18.030Z,102512.44
2024-01-20T00:34:59.916Z,102510.56
2024-01-20T00:37:34.048Z,102513.81
2024-01-20T00:40:00.490Z,102517.09
2024-01-20T00:42:26.972Z,102514.16
2024-01-20T00:44:53.421Z,102511.16
2024-01-20T00:47:19.880Z,102515.31
2024-01-20T00:49:46.474Z,102509.78
2024-01-20T00:52:12.976Z,102509.91
2024-01-20T00:54:39.586Z,102516.75
2024-01-20T00:57:06.161Z,102518.56
2024-01-20T00:59:32.706Z,102522.06
2024-01-20T01:01:59.346Z,102521.03
2024-01-20T01:04:25.918Z,102527.78
2024-01-20T01:06:52.429Z,102528.47
2024-01-20T01:09:21.187Z,102529.84
2024-01-20T01:11:49.829Z,102527.94
2024-01-20T01:14:19.969Z,102528.69
2024-01-20T01:16:47.501Z,102526.91
2024-01-20T01:19:14.102Z,102536.38
2024-01-20T01:21:40.590Z,102529.38
2024-01-20T01:24:07.169Z,102533.31
2024-01-20T01:26:33.980Z,102536.69
2024-01-20T01:29:03.453Z,102533.88
2024-01-20T01:31:29.908Z,102531.97
2024-01-20T01:33:56.383Z,102534.66
2024-01-20T01:36:22.920Z,102528.00
2024-01-20T01:38:49.342Z,102543.88
2024-01-20T01:41:20.467Z,102548.16
2024-01-20T01:43:47.651Z,102555.13
2024-01-20T01:46:35.086Z,102557.63
2024-01-20T01:49:01.926Z,102555.72
2024-01-20T01:51:29.363Z,102556.38
2024-01-20T01:54:01.588Z,102543.31
2024-01-20T01:56:29.441Z,102559.06
2024-01-20T01:58:57.235Z,102559.88
2024-01-20T02:01:24.261Z,102547.94
2024-01-20T02:03:50.957Z,102555.72
2024-01-20T02:06:20.512Z,102560.88
2024-01-20T02:08:48.010Z,102563.34
2024-01-20T02:11:15.938Z,102553.00
2024-01-20T02:13:42.705Z,102549.16
2024-01-20T02:16:09.988Z,102552.56
2024-01-20T02:18:36.608Z,102555.59
2024-01-20T02:21:06.658Z,102556.13
2024-01-20T02:23:40.275Z,102551.50
2024-01-20T02:26:07.183Z,102558.34
2024-01-20T02:28:33.778Z,102547.78
2024-01-20T02:31:00.256Z,102540.03
2024-01-20T02:33:26.768Z,102541.25
2024-01-20T02:35:53.349Z,102539.56
2024-01-20T02:38:19.851Z,102548.66
2024-01-20T02:40:46.306Z,102549.47
2024-01-20T02:43:12.958Z,102557.91
2024-01-20T02:45:39.454Z,102553.47
2024-01-20T02:48:06.551Z,102556.97
2024-01-20T02:50:33.202Z,102557.91
2024-01-20T02:52:59.710Z,102554.50
2024-01-20T02:55:26.235Z,102555.31
2024-01-20T02:57:52.654Z,102571.50
2024-01-20T03:00:19.091Z,102572.25
2024-01-20T03:02:45.602Z,102566.31
2024-01-20T03:05:12.468Z,102567.09
2024-01-20T03:07:38.982Z,102570.47
2024-01-20T03:10:07.711Z,102586.63
2024-01-20T03:12:34.186Z,102570.22
2024-01-20T03:15:00.772Z,102581.47
2024-01-20T03:17:27.290Z,102585.84
2024-01-20T03:19:53.820Z,102595.16
2024-01-20T03:22:20.245Z,102577.19
2024-01-20T03:24:48.522Z,102584.06
2024-01-20T03:27:15.413Z,102596.19
2024-01-20T03:29:41.919Z,102587.66
2024-01-20T03:32:08.524Z,102584.41
2024-01-20T03:34:35.188Z,102597.22
2024-01-20T03:37:01.873Z,102581.69
2024-01-20T03:39:35.380Z,102597.22
2024-01-20T03:42:02.022Z,102596.41
2024-01-20T03:44:31.421Z,102589.59
2024-01-20T03:46:57.928Z,102603.28
2024-01-20T03:49:24.588Z,102603.19
2024-01-20T03:51:51.238Z,102603.59
2024-01-20T03:54:17.907Z,102601.69
2024-01-20T03:56:45.407Z,102594.47
2024-01-20T03:59:12.096Z,102604.69
2024-01-20T04:01:38.660Z,102602.09
2024-01-20T04:04:05.830Z,102601.19
2024-01-20T04:06:33.189Z,102609.97
2024-01-20T04:08:59.760Z,102603.03
2024-01-20T04:11:26.235Z,102599.41
2024-01-20T04:13:52.692Z,102601.75
2024-01-20T04:16:19.323Z,102602.53
2024-01-20T04:18:46.011Z,102601.63
2024-01-20T04:21:12.512Z,102607.59
2024-01-20T04:23:38.994Z,102602.28
2024-01-20T04:26:05.717Z,102611.59
2024-01-20T04:28:35.247Z,102606.34
2024-01-20T04:31:04.750Z,102612.41
2024-01-20T04:33:31.773Z,102619.13
2024-01-20T04:35:58.346Z,102622.50
2024-01-20T04:38:24.800Z,102625.75
2024-01-20T04:40:52.267Z,102632.47
2024-01-20T04:43:18.737Z,102635.28
2024-01-20T04:45:45.497Z,102641.47
2024-01-20T04:48:12.375Z,102628.31
2024-01-20T04:50:38.983Z,102635.94
2024-01-20T04:53:05.561Z,102635.94
2024-01-20T04:55:32.004Z,102633.38
2024-01-20T04:57:58.473Z,102632.59
2024-01-20T05:00:25.014Z,102638.00
2024-01-20T05:02:51.661Z,102638.09
2024-01-20T05:05:18.158Z,102637.88
2024-01-20T05:07:44.771Z,102639.44
2024-01-20T05:10:11.393Z,102638.44
2024-01-20T05:12:37.972Z,102648.09
2024-01-20T05:15:08.435Z,102644.50
2024-01-20T05:17:38.479Z,102642.00
2024-01-20T05:20:06.647Z,102643.69
2024-01-20T05:22:33.350Z,102636.19
2024-01-20T05:24:59.919Z,102644.72
2024-01-20T05:27:29.244Z,102648.22
2024-01-20T05:29:55.766Z,102636.75
2024-01-20T05:32:22.412Z,102649.66
2024-01-20T05:34:49.318Z,102651.34
2024-01-20T05:37:15.844Z,102652.25
2024-01-20T05:39:45.344Z,102653.66
2024-01-20T05:42:11.901Z,102655.34
2024-01-20T05:44:38.405Z,102662.22
2024-01-20T05:47:07.314Z,102647.59
2024-01-20T05:49:34.218Z,102651.88
2024-01-20T05:52:00.656Z,102648.50
2024-01-20T05:54:27.105Z,102653.56
2024-01-20T05:56:53.587Z,102650.84
2024-01-20T05:59:22.988Z,102663.75
2024-01-20T06:01:51.712Z,102655.25
2024-01-20T06:04:18.828Z,102661.41
2024-01-20T06:06:46.910Z,102659.63
2024-01-20T06:09:13.529Z,102661.41
2024-01-20T06:11:39.999Z,102655.13
2024-01-20T06:14:06.882Z,102671.50
2024-01-20T06:16:35.179Z,102661.84
2024-01-20T06:19:04.213Z,102662.78
2024-01-20T06:21:30.759Z,102668.94
2024-01-20T06:23:57.243Z,102669.06
2024-01-20T06:26:23.704Z,102671.50
2024-01-20T06:28:50.756Z,102680.19
2024-01-20T06:31:27.565Z,102673.22
2024-01-20T06:33:55.085Z,102674.75
2024-01-20T06:36:28.057Z,102668.59
2024-01-20T06:38:54.741Z,102670.53
2024-01-20T06:41:21.400Z,102668.44
2024-01-20T06:43:47.997Z,102677.91
2024-01-20T06:46:14.774Z,102685.00
2024-01-20T06:48:41.355Z,102686.69
2024-01-20T06:51:07.993Z,102680.56
2024-01-20T06:53:34.390Z,102687.56
2024-01-20T06:56:00.838Z,102681.50
2024-01-20T06:58:27.333Z,102682.50
2024-01-20T07:00:53.956Z,102676.44
2024-01-20T07:03:24.564Z,102680.84
2024-01-20T07:05:51.252Z,102673.75
2024-01-20T07:08:20.770Z,102682.66
2024-01-20T07:10:47.456Z,102680.06
2024-01-20T07:13:13.919Z,102677.63
2024-01-20T07:15:40.804Z,102695.00
2024-01-20T07:18:07.611Z,102698.38
2024-01-20T07:20:34.132Z,102695.16
2024-01-20T07:23:01.165Z,102693.34
2024-01-20T07:25:27.877Z,102681.19
2024-01-20T07:27:54.623Z,102680.19
2024-01-20T07:30:21.605Z,102696.69
2024-01-20T07:32:48.318Z,102692.56
2024-01-20T07:35:17.549Z,102697.72
2024-01-20T07:37:46.328Z,102701.59
2024-01-20T07:40:13.270Z,102705.06
2024-01-20T07:42:41.579Z,102704.41
2024-01-20T07:45:12.284Z,102695.34
2024-01-20T07:47:38.974Z,102701.00
2024-01-20T07:50:06.157Z,102703.84
2024-01-20T07:52:32.948Z,102698.78
2024-01-20T07:54:59.532Z,102702.41
2024-01-20T07:57:26.224Z,102698.13
2024-01-20T07:59:52.671Z,102704.56
2024-01-20T08:02:19.677Z,102703.00
2024-01-20T08:04:46.808Z,102713.72
2024-01-20T08:07:13.943Z,102706.06
2024-01-20T08:09:40.844Z,102707.97
2024-01-20T08:12:08.001Z,102700.22
2024-01-20T08:14:34.977Z,102708.13
2024-01-20T08:17:01.557Z,102720.50
2024-01-20T08:19:29.896Z,102702.94
2024-01-20T08:21:57.109Z,102708.72
2024-01-20T08:24:25.542Z,102708.16
2024-01-20T08:26:52.901Z,102717.53
2024-01-20T08:29:21.239Z,102715.84
2024-01-20T08:31:50.976Z,102726.88
2024-01-20T08:34:21.189Z,102731.00
2024-01-20T08:36:48.445Z,102737.75
2024-01-20T08:39:18.467Z,102745.44
2024-01-20T08:41:45.160Z,102737.38
2024-01-20T08:44:11.990Z,102738.72
2024-01-20T08:46:38.815Z,102741.06
2024-01-20T08:49:08.703Z,102742.63
2024-01-20T08:51:35.497Z,102747.56
2024-01-20T08:54:02.422Z,102750.69
2024-01-20T08:56:29.198Z,102739.09
2024-01-20T08:58:56.000Z,102744.50
2024-01-20T09:01:22.592Z,102749.53
2024-01-20T09:03:49.301Z,102761.94
2024-01-20T09:06:19.844Z,102763.09
2024-01-20T09:08:46.672Z,102756.88
2024-01-20T09:11:13.639Z,102764.22
2024-01-20T09:13:40.364Z,102758.03
2024-01-20T09:16:07.462Z,102743.28
2024-01-20T09:18:37.155Z,102764.13
2024-01-20T09:21:04.029Z,102770.31
2024-01-20T09:23:30.580Z,102772.09
2024-01-20T09:25:57.327Z,102778.31
2024-01-20T09:28:23.885Z,102788.91
2024-01-20T09:30:50.859Z,102780.25
2024-01-20T09:33:17.755Z,102776.44
2024-01-20T09:35:47.021Z,102775.34
2024-01-20T09:38:13.825Z,102780.44
2024-01-20T09:40:40.883Z,102786.81
2024-01-20T09:43:08.328Z,102777.03
2024-01-20T09:45:40.348Z,102783.16
2024-01-20T09:48:08.617Z,102787.25
2024-01-20T09:50:36.046Z,102807.97
2024-01-20T09:53:15.734Z,102783.31
2024-01-20T09:55:43.948Z,102794.16
2024-01-20T09:58:14.555Z,102789.78
2024-01-20T10:00:42.356Z,102786.59
2024-01-20T10:03:10.899Z,102788.13
2024-01-20T10:05:38.342Z,102795.78
2024-01-20T10:08:08.567Z,102797.72
2024-01-20T10:10:35.680Z,102796.81
2024-01-20T10:13:02.658Z,102790.06
2024-01-20T10:15:34.063Z,102792.72
2024-01-20T10:18:06.510Z,102786.44
2024-01-20T10:20:35.258Z,102805.28
2024-01-20T10:23:03.646Z,102807.75
2024-01-20T10:25:30.482Z,102796.25
2024-01-20T10:27:57.071Z,102783.84
2024-01-20T10:30:24.454Z,102791.84
2024-01-20T10:35:20.810Z,102786.31
2024-01-20T10:37:50.031Z,102785.47
2024-01-20T10:40:16.836Z,102792.22
2024-01-20T10:42:48.722Z,102781.50
2024-01-20T10:45:19.290Z,102791.91
2024-01-20T10:48:00.130Z,102787.50
2024-01-20T10:50:29.770Z,102787.16
2024-01-20T10:52:56.797Z,102799.56
2024-01-20T10:55:23.689Z,102796.25
2024-01-20T10:57:51.059Z,102797.50
2024-01-20T11:00:19.034Z,102795.00
2024-01-20T11:02:46.701Z,102795.84
2024-01-20T11:05:23.095Z,102796.41
2024-01-20T11:08:23.256Z,102799.06
2024-01-20T11:10:53.005Z,102789.63
2024-01-20T11:13:19.503Z,102798.41
2024-01-20T11:15:51.391Z,102789.09
2024-01-20T11:18:22.073Z,102793.66
2024-01-20T11:20:58.901Z,102782.00
2024-01-20T11:23:26.470Z,102794.31
2024-01-20T11:25:53.021Z,102782.72
2024-01-20T11:28:34.896Z,102780.38
2024-01-20T11:31:01.869Z,102789.22
2024-01-20T11:33:28.627Z,102783.50
2024-01-20T11:35:55.184Z,102773.84
2024-01-20T11:38:22.348Z,102771.00
2024-01-20T11:41:02.647Z,102775.28
2024-01-20T11:43:29.426Z,102764.41
2024-01-20T11:45:59.170Z,102766.69
2024-01-20T11:48:26.724Z,102768.47
2024-01-20T11:50:53.952Z,102758.19
2024-01-20T11:53:23.835Z,102766.13
2024-01-20T11:56:03.076Z,102761.41
2024-01-20T11:58:31.269Z,102754.97
2024-01-20T12:00:59.283Z,102755.88
2024-01-20T12:03:28.085Z,102756.81
2024-01-20T12:05:55.509Z,102757.59
2024-01-20T12:08:22.461Z,102750.75
2024-01-20T12:10:50.290Z,102747.75
2024-01-20T12:13:17.791Z,102736.91
2024-01-20T12:15:46.757Z,102739.25
2024-01-20T12:18:13.497Z,102732.34
2024-01-20T12:20:41.159Z,102734.94
2024-01-20T12:23:07.794Z,102747.34
2024-01-20T12:25:37.224Z,102725.69
2024-01-20T12:28:04.282Z,102728.53
2024-01-20T12:30:30.890Z,102719.38
2024-01-20T12:32:57.974Z,102713.59
2024-01-20T12:35:24.811Z,102727.06
2024-01-20T12:37:51.308Z,102709.34
2024-01-20T12:40:17.877Z,102697.91
2024-01-20T12:42:44.432Z,102694.22
2024-01-20T12:45:12.933Z,102698.47
2024-01-20T12:47:40.045Z,102694.56
2024-01-20T12:50:07.530Z,102690.94
2024-01-20T12:52:34.720Z,102693.50
2024-01-20T12:55:01.291Z,102700.22
2024-01-20T12:57:27.828Z,102695.25
2024-01-20T12:59:54.793Z,102705.75
2024-01-20T13:02:21.539Z,102699.97
2024-01-20T13:04:48.205Z,102704.19
2024-01-20T13:07:15.499Z,102694.44
2024-01-20T13:09:42.704Z,102691.88
2024-01-20T13:12:09.733Z,102688.16
2024-01-20T13:14:36.654Z,102683.44
2024-01-20T13:17:04.035Z,102685.44
2024-01-20T13:19:31.105Z,102683.19
2024-01-20T13:21:58.408Z,102678.28
2024-01-20T13:24:25.265Z,102683.25
2024-01-20T13:26:51.837Z,102682.19
2024-01-20T13:29:18.600Z,102674.00
2024-01-20T13:31:45.213Z,102676.84
2024-01-20T13:34:11.865Z,102677.31
2024-01-20T13:36:38.581Z,102673.09
2024-01-20T13:39:06.341Z,102668.75
2024-01-20T13:41:34.675Z,102667.13
2024-01-20T13:44:01.290Z,102661.34
2024-01-20T13:46:27.834Z,102664.25
2024-01-20T13:48:54.606Z,102666.28
2024-01-20T13:51:22.956Z,102663.53
2024-01-20T13:53:49.569Z,102674.94
2024-01-20T13:56:16.070Z,102671.91
2024-01-20T13:58:42.664Z,102675.47
2024-01-20T14:01:09.534Z,102679.66
2024-01-20T14:03:36.435Z,102671.84
2024-01-20T14:06:03.867Z,102670.38
2024-01-20T14:08:30.627Z,102667.25
2024-01-20T14:10:57.108Z,102662.78
2024-01-20T14:13:23.647Z,102663.94
2024-01-20T14:15:51.756Z,102653.97
2024-01-20T14:18:18.610Z,102667.25
2024-01-20T14:20:45.377Z,102662.19
2024-01-20T14:23:12.253Z,102661.44
2024-01-20T14:25:38.804Z,102660.41
2024-01-20T14:28:09.781Z,102667.81
2024-01-20T14:30:36.445Z,102667.31
2024-01-20T14:33:04.171Z,102661.28
2024-01-20T14:35:30.863Z,102663.78
2024-01-20T14:37:57.774Z,102656.06
2024-01-20T14:40:24.779Z,102662.94
2024-01-20T14:42:51.866Z,102653.75
2024-01-20T14:45:19.602Z,102666.69
2024-01-20T14:47:48.578Z,102668.03
2024-01-20T14:50:15.469Z,102674.50
2024-01-20T14:52:41.986Z,102668.75
2024-01-20T14:55:09.081Z,102668.47
2024-01-20T14:57:38.345Z,102675.19
2024-01-20T15:00:08.651Z,102678.94
2024-01-20T15:02:36.018Z,102680.38
2024-01-20T15:05:02.987Z,102684.69
2024-01-20T15:07:32.382Z,102685.28
2024-01-20T15:10:00.729Z,102684.03
2024-01-20T15:12:30.616Z,102682.72
2024-01-20T15:14:58.628Z,102685.97
2024-01-20T15:17:25.258Z,102677.88
2024-01-20T15:19:51.896Z,102688.19
2024-01-20T15:22:19.286Z,102689.50
2024-01-20T15:24:45.986Z,102676.31
2024-01-20T15:27:12.936Z,102681.22
2024-01-20T15:29:39.670Z,102677.25
2024-01-20T15:32:06.790Z,102679.47
2024-01-20T15:34:33.403Z,102677.28
2024-01-20T15:37:00.098Z,102681.91
2024-01-20T15:39:26.996Z,102689.28
2024-01-20T15:41:53.851Z,102684.91
2024-01-20T15:44:20.401Z,102685.59
2024-01-20T15:46:47.131Z,102688.28
2024-01-20T15:49:15.349Z,102689.28
2024-01-20T15:51:43.662Z,102682.00
2024-01-20T15:54:10.670Z,102690.63
2024-01-20T15:56:42.569Z,102691.13
2024-01-20T15:59:09.355Z,102693.91
2024-01-20T16:01:36.014Z,102690.81
2024-01-20T16:04:04.107Z,102689.28
2024-01-20T16:06:31.227Z,102678.50
2024-01-20T16:08:58.052Z,102683.56
2024-01-20T16:11:28.241Z,102683.69
2024-01-20T16:13:54.893Z,102680.97
2024-01-20T16:16:21.877Z,102680.09
2024-01-20T16:18:49.103Z,102676.41
2024-01-20T16:21:41.381Z,102690.06
2024-01-20T16:24:08.224Z,102672.38
2024-01-20T16:26:34.771Z,102681.66
2024-01-20T16:29:01.254Z,102676.88
2024-01-20T16:31:28.580Z,102678.44
2024-01-20T16:33:56.979Z,102680.44
2024-01-20T16:36:23.976Z,102677.63
2024-01-20T16:38:53.734Z,102681.25
2024-01-20T16:41:20.531Z,102674.47
2024-01-20T16:43:47.544Z,102675.72
2024-01-20T16:46:14.091Z,102675.72
2024-01-20T16:48:43.630Z,102687.13
2024-01-20T16:51:15.329Z,102680.16
2024-01-20T16:53:49.184Z,102674.84
2024-01-20T16:56:15.665Z,102678.13
2024-01-20T16:58:42.251Z,102679.13
2024-01-20T17:01:09.051Z,102673.94
2024-01-20T17:03:36.239Z,102672.94
2024-01-20T17:06:02.925Z,102667.63
2024-01-20T17:08:29.514Z,102670.13
2024-01-20T17:10:56.061Z,102668.03
2024-01-20T17:13:22.676Z,102662.63
2024-01-20T17:15:49.286Z,102661.63
2024-01-20T17:18:18.638Z,102671.81
2024-01-20T17:20:45.406Z,102665.59
2024-01-20T17:23:12.644Z,102662.09
2024-01-20T17:25:39.101Z,102658.38
2024-01-20T17:28:05.784Z,102655.38
2024-01-20T17:30:32.269Z,102650.75
2024-01-20T17:32:58.787Z,102649.34
2024-01-20T17:35:25.401Z,102649.94
2024-01-20T17:37:54.606Z,102646.31
2024-01-20T17:40:21.542Z,102644.69
2024-01-20T17:42:48.058Z,102636.69
2024-01-20T17:45:16.315Z,102641.75
2024-01-20T17:47:45.607Z,102645.72
2024-01-20T17:50:12.720Z,102642.13
2024-01-20T17:52:42.132Z,102639.31
2024-01-20T17:55:08.977Z,102645.41
2024-01-20T17:57:35.540Z,102642.13
2024-01-20T18:00:02.199Z,102649.13
2024-01-20T18:02:28.702Z,102647.84
2024-01-20T18:04:55.686Z,102650.66
2024-01-20T18:07:22.282Z,102641.75
2024-01-20T18:09:48.744Z,102643.78
2024-01-20T18:12:15.345Z,102634.66
2024-01-20T18:14:41.960Z,102651.59
2024-01-20T18:17:09.906Z,102647.44
2024-01-20T18:19:36.649Z,102645.94
2024-01-20T18:22:03.526Z,102646.25
2024-01-20T18:24:30.200Z,102653.63
2024-01-20T18:26:56.889Z,102655.41
2024-01-20T18:29:23.328Z,102657.59
2024-01-20T18:31:50.138Z,102652.19
2024-01-20T18:34:17.262Z,102650.63
2024-01-20T18:36:43.954Z,102648.19
2024-01-20T18:39:10.570Z,102650.56
2024-01-20T18:41:37.050Z,102646.06
2024-01-20T18:44:06.545Z,102638.53
2024-01-20T18:46:36.063Z,102646.41
2024-01-20T18:49:02.770Z,102641.00
2024-01-20T18:51:31.901Z,102627.34
2024-01-20T18:53:58.386Z,102627.03
2024-01-20T18:56:25.116Z,102626.25
2024-01-20T18:58:51.676Z,102634.31
2024-01-20T19:01:18.216Z,102633.22
2024-01-20T19:03:45.533Z,102634.78
2024-01-20T19:06:12.546Z,102627.22
2024-01-20T19:08:39.168Z,102623.97
2024-01-20T19:11:08.382Z,102634.66
2024-01-20T19:13:34.886Z,102638.84
2024-01-20T19:16:03.036Z,102632.19
2024-01-20T19:18:29.883Z,102636.50
2024-01-20T19:20:56.620Z,102620.69
2024-01-20T19:23:23.284Z,102622.06
2024-01-20T19:25:49.736Z,102633.22
2024-01-20T19:28:16.257Z,102630.41
2024-01-20T19:30:42.700Z,102628.63
2024-01-20T19:33:09.731Z,102622.72
2024-01-20T19:35:36.373Z,102615.66
2024-01-20T19:38:03.643Z,102625.44
2024-01-20T19:40:30.537Z,102610.69
2024-01-20T19:42:57.260Z,102604.63
2024-01-20T19:45:23.918Z,102604.06
2024-01-20T19:47:50.609Z,102620.53
2024-01-20T19:50:17.763Z,102617.34
2024-01-20T19:52:44.376Z,102616.34
2024-01-20T19:55:11.065Z,102614.19
2024-01-20T19:57:37.813Z,102622.28
2024-01-20T20:00:05.602Z,102604.94
2024-01-20T20:02:40.282Z,102601.31
2024-01-20T20:05:07.144Z,102584.66
2024-01-20T20:07:36.748Z,102588.13
2024-01-20T20:10:04.094Z,102575.78
2024-01-20T20:12:31.947Z,102578.03
2024-01-20T20:14:58.778Z,102569.78
2024-01-20T20:17:25.626Z,102563.59
2024-01-20T20:19:52.198Z,102544.22
2024-01-20T20:22:18.798Z,102551.00
2024-01-20T20:24:46.310Z,102550.88
2024-01-20T20:27:13.260Z,102550.00
2024-01-20T20:29:40.232Z,102552.94
2024-01-20T20:32:07.362Z,102554.50
2024-01-20T20:34:34.267Z,102551.63
2024-01-20T20:37:01.208Z,102561.50
2024-01-20T20:39:30.904Z,102552.41
2024-01-20T20:41:58.231Z,102555.22
2024-01-20T20:44:24.723Z,102549.16
2024-01-20T20:47:01.666Z,102546.22
2024-01-20T20:49:29.279Z,102531.94
2024-01-20T20:51:55.952Z,102536.19
2024-01-20T20:54:22.845Z,102532.16
2024-01-20T20:56:49.542Z,102526.78
2024-01-20T20:59:16.458Z,102529.94
2024-01-20T21:01:44.429Z,102526.44
2024-01-20T21:04:11.690Z,102522.59
2024-01-20T21:06:39.177Z,102519.44
2024-01-20T21:09:06.905Z,102518.88
2024-01-20T21:11:33.502Z,102522.47
2024-01-20T21:14:00.468Z,102516.28
2024-01-20T21:16:30.439Z,102514.16
2024-01-20T21:18:58.115Z,102514.25
2024-01-20T21:21:24.886Z,102499.84
2024-01-20T21:23:51.506Z,102501.91
2024-01-20T21:26:22.788Z,102505.38
2024-01-20T21:28:49.854Z,102499.19
2024-01-20T21:31:17.086Z,102488.28
2024-01-20T21:33:45.043Z,102487.38
2024-01-20T21:36:12.143Z,102485.69
2024-01-20T21:38:42.643Z,102471.84
2024-01-20T21:41:11.930Z,102463.38
2024-01-20T21:43:38.435Z,102464.28
2024-01-20T21:46:05.041Z,102470.34
2024-01-20T21:48:31.658Z,102480.59
2024-01-20T21:50:58.562Z,102474.63
2024-01-20T21:53:25.260Z,102468.56
2024-01-20T21:55:51.849Z,102467.97
2024-01-20T21:58:18.436Z,102470.22
2024-01-20T22:00:44.995Z,102468.53
2024-01-20T22:03:11.636Z,102459.66
2024-01-20T22:05:39.278Z,102469.31
2024-01-20T22:08:06.093Z,102442.84
2024-01-20T22:10:33.410Z,102431.69
2024-01-20T22:12:59.990Z,102432.91
2024-01-20T22:15:26.559Z,102430.53
2024-01-20T22:17:53.421Z,102409.22
2024-01-20T22:20:20.030Z,102412.59
2024-01-20T22:22:46.617Z,102411.03
2024-01-20T22:25:14.339Z,102412.69
2024-01-20T22:27:40.934Z,102415.97
2024-01-20T22:30:10.137Z,102412.81
2024-01-20T22:32:40.484Z,102412.13
2024-01-20T22:35:07.528Z,102399.06
2024-01-20T22:37:34.187Z,102389.63
2024-01-20T22:40:03.064Z,102381.94
2024-01-20T22:42:29.576Z,102373.97
2024-01-20T22:44:56.170Z,102374.75
2024-01-20T22:47:23.447Z,102363.47
2024-01-20T22:49:50.877Z,102357.41
2024-01-20T22:52:17.468Z,102358.00
2024-01-20T22:54:45.166Z,102358.00
2024-01-20T22:57:12.022Z,102350.31
2024-01-20T22:59:38.639Z,102347.84
2024-01-20T23:02:05.748Z,102337.69
2024-01-20T23:04:32.513Z,102343.19
2024-01-20T23:06:59.669Z,102348.38
2024-01-20T23:09:27.939Z,102344.28
2024-01-20T23:11:55.291Z,102349.66
2024-01-20T23:14:22.185Z,102352.47
2024-01-20T23:16:48.997Z,102337.41
2024-01-20T23:19:15.606Z,102337.72
2024-01-20T23:21:42.131Z,102334.31
2024-01-20T23:24:09.054Z,102321.28
2024-01-20T23:26:36.148Z,102326.25
2024-01-20T23:29:02.655Z,102315.78
2024-01-20T23:31:29.194Z,102313.19
2024-01-20T23:33:55.694Z,102315.91
2024-01-20T23:36:22.229Z,102322.75
2024-01-20T23:38:48.666Z,102320.88
2024-01-20T23:41:15.423Z,102312.09
2024-01-20T23:43:42.971Z,102318.50
2024-01-20T23:46:11.380Z,102311.22
2024-01-20T23:48:37.983Z,102315.38
2024-01-20T23:51:05.032Z,102312.34
2024-01-20T23:53:32.502Z,102306.28
2024-01-20T23:55:59.013Z,102305.88
2024-01-20T23:58:25.591Z,102299.13
